AirNav   Air Wisconsin Up To $57,000 Bonus
 
 917 users online  

06MA The Barn Heliport
Pepperell, Massachusetts, USA

GOING TO PEPPERELL?


FAA INFORMATION EFFECTIVE 07 NOVEMBER 2019

Location

FAA Identifier: 06MA
Lat/Long: 42-41-26.3200N 071-36-32.2490W
42-41.438667N 071-36.537483W
42.6906444,-71.6089581
(estimated)
Elevation: 210 ft. / 64 m (estimated)
Variation: 16W (1990)
From city: 3 miles NW of PEPPERELL, MA
Time zone: UTC -5 (UTC -4 during Daylight Saving Time)
Zip code: 01463

Heliport Operations

Heliport use: Private use. Permission required prior to landing
Activation date: 12/1992
Control tower: no
ARTCC: BOSTON CENTER
FSS: BRIDGEPORT FLIGHT SERVICE STATION
Attendance: UNATNDD
Segmented circle: no
Lights: FOR LGTS CALL 508-433-2051.

Heliport Communications

WX AWOS-3PT at ASH (7 nm NE): 125.1 (603-578-0473)
WX ASOS at FIT (11 nm SW): 135.175 (978-343-9121)
WX ASOS at MHT (16 nm NE): 119.55 (603-621-1766)
WX ASOS at AFN (19 nm W): 135.875 (603-532-6195)
WX ASOS at BED (19 nm SE): 124.6 (781-274-9733)

Nearby radio navigation aids

VOR radial/distance  VOR name  Freq  Var
MHTr240/15.0MANCHESTER VOR/DME114.4015W
GDMr080/21.7GARDNER VOR/DME110.6014W
LWMr277/22.9LAWRENCE VOR/DME112.5015W
EENr116/30.7KEENE VORTAC109.4014W
CONr198/31.8CONCORD VOR/DME112.9015W
BOSr322/33.9BOSTON VOR/DME112.7016W

 
NDB name  Hdg/Dist  Freq  Var  ID
FITZY214/11.020915WMJ -- .---
SHAKER HILL323/23.725116WSKR ... -.- .-.

Heliport Services

Runway Information

Helipad H1

Dimensions: 15 x 15 ft. / 5 x 5 m
Surface: asphalt
Runway edge lights: PERI
AND FLOOD LGTS.
Latitude: 42-41.438667N
Longitude: 071-36.537483W
Elevation: 210.0 ft.
Traffic pattern: leftleft

Heliport Ownership and Management from official FAA records

Ownership: Privately-owned
Owner: DAVID BURTON
112 BROOKLINE ST
PEPPERELL, MA 01463
Phone (978) 433-2051

Heliport Operational Statistics

Aircraft based on the field: 1
Helicopters: 1
    

Additional Remarks

A52-H1 50 FT TREES 200 FT NW & SE OF HELIPAD.
FOR CD CTC BOSTON APCH AT 603-594-5551.

Instrument Procedures

There are no published instrument procedures at 06MA.

Some nearby airports with instrument procedures:

KASH - Boire Field Airport (7 nm NE)
KFIT - Fitchburg Municipal Airport (11 nm SW)
6B6 - Minute Man Air Field (14 nm S)
KMHT - Manchester Airport (16 nm NE)
KAFN - Jaffrey Airport-Silver Ranch (19 nm W)
KBED - Laurence G Hanscom Field Airport (19 nm SE)
KGDM - Gardner Municipal Airport (20 nm SW)
 
Loc | Ops | Rwys | IFR | FBO | Links
Com | Nav | Svcs | Stats | Notes
Area around 06MA (The Barn Heliport)
 
Road maps at: MapQuest Bing Google
 
Aerial photo
No photo
 
Sectional chart

 
Airport distance calculator
Flying to The Barn Heliport? Find the distance to fly.

From to 06MA

Sunrise and sunset
Times for 11-Nov-2019
 Local
(UTC-5)
 Zulu
(UTC)
Morning civil twilight06:0411:04
Sunrise06:3411:34
Sunset16:2721:27
Evening civil twilight16:5721:57

Current date and time
Zulu (UTC)  12-Nov-2019 01:57:05
Local (UTC-5)  11-Nov-2019 20:57:05
 
METAR
KASH 
6nm NE 
120056Z 04004KT 10SM OVC012 05/03 A3003 RMK AO2 SLP176 T00500033
KFIT 
10nm SW 
120152Z AUTO 01003KT 10SM OVC010 05/02 A3000 RMK AO2 SLP163 T00500022
KMHT 
16nm NE 
120153Z 04010KT 10SM OVC008 03/01 A3002 RMK AO2 SLP182 T00280006
KAFN 
18nm W 
120152Z AUTO VRB03KT 10SM OVC006 03/01 A2997 RMK AO2 SLP163 T00280006
KBED 
19nm SE 
120151Z 05008KT 10SM BKN009 OVC020 08/04 A2999 RMK AO2 SLP168 T00780044
TAF
KMHT 
16nm NE 
111745Z 1118/1218 02006KT P6SM OVC050 FM112200 01004KT 5SM -SHRA BR OVC008 FM121100 21004KT 4SM -RA BR OVC012 FM121600 28008KT P6SM BKN025
KBED 
19nm SE 
112101Z 1121/1218 04010KT P6SM BKN040 FM120000 04006KT P6SM OVC025 FM120200 01005KT P6SM OVC008 FM120800 24005KT 2SM BR OVC005 FM121500 25010KT 5SM -RA BR OVC015 FM121700 29010G20KT 6SM -RASN OVC020
NOTAMs
Click for the latest NOTAMs
NOTAMs are issued by the DoD/FAA and will open in a separate window not controlled by AirNav.

 

 
 

Would you like to see your business listed on this page?

 If your business provides an interesting product or service to pilots, flight crews, aircraft, or users of the The Barn Heliport, you should consider listing it here.  To start the listing process, click on the button below
 
Add a business
 

Other Pages about The Barn Heliport

Update a link
 
Copyright © AirNav, LLC. All rights reserved. Privacy Policy  Contact